createdAt,value
2023-02-12T00:01:22.872Z,14.13
2023-02-12T00:02:55.839Z,14.95
2023-02-12T00:04:28.741Z,14.05
2023-02-12T00:06:02.447Z,15.45
2023-02-12T00:07:35.602Z,13.95
2023-02-12T00:09:08.511Z,14.00
2023-02-12T00:10:41.524Z,15.98
2023-02-12T00:12:14.431Z,15.05
2023-02-12T00:13:47.717Z,15.05
2023-02-12T00:15:20.819Z,13.68
2023-02-12T00:16:53.777Z,14.60
2023-02-12T00:18:26.694Z,14.00
2023-02-12T00:19:59.841Z,14.88
2023-02-12T00:21:35.562Z,14.18
2023-02-12T00:23:07.753Z,14.57
2023-02-12T00:24:40.750Z,14.60
2023-02-12T00:26:16.018Z,14.45
2023-02-12T00:27:48.993Z,14.48
2023-02-12T00:29:21.929Z,14.07
2023-02-12T00:30:53.991Z,14.52
2023-02-12T00:32:27.033Z,14.63
2023-02-12T00:34:01.299Z,15.35
2023-02-12T00:35:34.259Z,14.63
2023-02-12T00:37:08.542Z,14.57
2023-02-12T00:38:40.535Z,15.15
2023-02-12T00:40:14.385Z,13.73
2023-02-12T00:41:47.330Z,14.80
2023-02-12T00:43:20.489Z,13.63
2023-02-12T00:44:52.469Z,13.55
2023-02-12T00:46:25.489Z,14.75
2023-02-12T00:47:58.780Z,14.65
2023-02-12T00:49:34.133Z,14.50
2023-02-12T00:51:06.741Z,14.13
2023-02-12T00:52:41.148Z,14.43
2023-02-12T00:54:14.145Z,14.40
2023-02-12T00:55:46.229Z,14.52
2023-02-12T00:57:19.154Z,14.55
2023-02-12T00:58:52.107Z,14.43
2023-02-12T01:00:24.408Z,14.48
2023-02-12T01:01:57.568Z,14.18
2023-02-12T01:03:30.684Z,14.52
2023-02-12T01:05:03.742Z,15.38
2023-02-12T01:06:35.870Z,14.32
2023-02-12T01:08:13.071Z,15.15
2023-02-12T01:09:45.980Z,15.27
2023-02-12T01:11:18.986Z,15.20
2023-02-12T01:12:52.069Z,15.98
2023-02-12T01:14:24.994Z,16.20
2023-02-12T01:16:08.591Z,16.48
2023-02-12T01:17:41.603Z,16.45
2023-02-12T01:19:13.557Z,15.00
2023-02-12T01:20:46.698Z,16.13
2023-02-12T01:22:19.681Z,15.02
2023-02-12T01:23:54.111Z,14.27
2023-02-12T01:25:27.048Z,14.65
2023-02-12T01:26:59.957Z,14.55
2023-02-12T01:28:32.974Z,14.18
2023-02-12T01:30:07.310Z,15.52
2023-02-12T01:31:40.183Z,14.80
2023-02-12T01:33:13.293Z,15.63
2023-02-12T01:34:46.250Z,14.43
2023-02-12T01:36:18.295Z,14.93
2023-02-12T01:37:51.203Z,14.55
2023-02-12T01:39:25.494Z,16.15
2023-02-12T01:41:03.216Z,14.27
2023-02-12T01:42:36.938Z,14.38
2023-02-12T01:44:16.591Z,13.63
2023-02-12T01:45:53.618Z,14.60
2023-02-12T01:47:27.051Z,14.50
2023-02-12T01:49:00.372Z,14.75
2023-02-12T01:52:11.522Z,13.75
2023-02-12T01:53:49.627Z,14.40
2023-02-12T01:55:23.441Z,14.82
2023-02-12T01:56:56.619Z,14.20
2023-02-12T01:58:35.167Z,14.77
2023-02-12T02:00:12.259Z,15.20
2023-02-12T02:01:45.542Z,15.13
2023-02-12T02:04:54.193Z,14.38
2023-02-12T02:06:29.942Z,13.63
2023-02-12T02:08:02.964Z,14.52
2023-02-12T02:09:38.474Z,13.05
2023-02-12T02:11:29.493Z,14.05
2023-02-12T02:13:20.191Z,14.00
2023-02-12T02:14:56.239Z,13.70
2023-02-12T02:16:30.237Z,13.40
2023-02-12T02:18:09.216Z,14.73
2023-02-12T02:20:23.378Z,14.45
2023-02-12T02:22:17.549Z,14.52
2023-02-12T02:24:12.766Z,15.90
2023-02-12T02:26:08.654Z,13.98
2023-02-12T02:27:52.364Z,13.52
2023-02-12T02:29:50.472Z,14.15
2023-02-12T02:31:32.266Z,13.05
2023-02-12T02:33:30.489Z,13.38
2023-02-12T02:35:11.736Z,14.20
2023-02-12T02:37:00.220Z,14.00
2023-02-12T02:38:41.947Z,14.27
2023-02-12T02:40:19.172Z,14.70
2023-02-12T02:41:57.225Z,14.07
2023-02-12T02:43:33.923Z,14.05
2023-02-12T02:45:11.133Z,14.90
2023-02-12T02:46:48.205Z,15.52
2023-02-12T02:48:25.232Z,14.93
2023-02-12T02:50:03.186Z,14.85
2023-02-12T02:51:41.835Z,15.38
2023-02-12T02:53:17.806Z,15.77
2023-02-12T02:54:55.564Z,14.85
2023-02-12T02:56:30.921Z,13.95
2023-02-12T02:58:08.513Z,15.52
2023-02-12T02:59:45.564Z,14.25
2023-02-12T03:01:23.387Z,14.55
2023-02-12T03:03:01.981Z,14.43
2023-02-12T03:04:39.953Z,14.98
2023-02-12T03:06:15.507Z,14.02
2023-02-12T03:07:53.492Z,14.88
2023-02-12T03:09:30.200Z,15.00
2023-02-12T03:11:08.446Z,14.75
2023-02-12T03:12:45.976Z,14.30
2023-02-12T03:14:22.430Z,13.68
2023-02-12T03:15:59.495Z,14.57
2023-02-12T03:17:35.819Z,13.90
2023-02-12T03:19:16.482Z,14.75
2023-02-12T03:20:53.982Z,14.25
2023-02-12T03:22:30.542Z,13.30
2023-02-12T03:24:11.533Z,14.18
2023-02-12T03:25:53.730Z,14.82
2023-02-12T03:27:32.641Z,14.32
2023-02-12T03:29:04.853Z,14.40
2023-02-12T03:30:45.118Z,14.38
2023-02-12T03:32:28.852Z,14.20
2023-02-12T03:34:10.100Z,14.60
2023-02-12T03:35:53.577Z,14.52
2023-02-12T03:37:32.139Z,13.88
2023-02-12T03:39:09.521Z,14.38
2023-02-12T03:40:46.487Z,13.85
2023-02-12T03:42:24.663Z,14.50
2023-02-12T03:44:02.618Z,14.20
2023-02-12T03:45:44.835Z,14.02
2023-02-12T03:47:26.776Z,15.52
2023-02-12T03:49:05.591Z,14.85
2023-02-12T03:50:42.484Z,14.60
2023-02-12T03:52:16.851Z,13.88
2023-02-12T03:53:50.384Z,14.27
2023-02-12T03:55:22.391Z,14.30
2023-02-12T03:56:58.998Z,13.70
2023-02-12T03:58:35.288Z,13.55
2023-02-12T04:00:11.368Z,14.57
2023-02-12T04:01:44.623Z,13.25
2023-02-12T04:03:17.747Z,14.10
2023-02-12T04:04:49.830Z,14.30
2023-02-12T04:06:25.617Z,13.77
2023-02-12T04:08:01.671Z,14.95
2023-02-12T04:09:34.685Z,14.70
2023-02-12T04:11:14.458Z,13.73
2023-02-12T04:12:53.936Z,14.80
2023-02-12T04:14:33.882Z,14.23
2023-02-12T04:16:17.436Z,13.50
2023-02-12T04:17:59.377Z,12.88
2023-02-12T04:19:40.378Z,13.18
2023-02-12T04:21:19.610Z,14.75
2023-02-12T04:23:00.959Z,15.10
2023-02-12T04:24:45.464Z,15.35
2023-02-12T04:26:25.483Z,14.90
2023-02-12T04:28:03.538Z,14.65
2023-02-12T04:29:44.106Z,13.93
2023-02-12T04:31:24.733Z,14.70
2023-02-12T04:33:03.667Z,14.27
2023-02-12T04:34:42.393Z,14.98
2023-02-12T04:36:20.667Z,14.85
2023-02-12T04:37:57.529Z,14.27
2023-02-12T04:39:33.797Z,14.90
2023-02-12T04:41:08.840Z,14.38
2023-02-12T04:42:45.051Z,14.20
2023-02-12T04:44:22.675Z,15.02
2023-02-12T04:45:54.994Z,14.25
2023-02-12T04:47:28.278Z,15.02
2023-02-12T04:49:01.654Z,14.57
2023-02-12T04:52:12.352Z,14.63
2023-02-12T04:53:44.340Z,14.40
2023-02-12T04:55:17.594Z,15.02
2023-02-12T04:56:52.294Z,15.40
2023-02-12T04:58:25.202Z,13.73
2023-02-12T04:59:58.216Z,14.60
2023-02-12T05:01:31.429Z,15.52
2023-02-12T05:04:37.363Z,14.35
2023-02-12T05:06:10.630Z,14.40
2023-02-12T05:07:43.558Z,14.98
2023-02-12T05:09:18.544Z,15.18
2023-02-12T05:10:50.473Z,15.40
2023-02-12T05:12:25.022Z,15.57
2023-02-12T05:13:58.024Z,15.75
2023-02-12T05:15:31.078Z,15.38
2023-02-12T05:17:04.050Z,16.65
2023-02-12T05:18:37.127Z,15.65
2023-02-12T05:20:11.544Z,16.55
2023-02-12T05:21:43.485Z,16.05
2023-02-12T05:23:16.344Z,16.25
2023-02-12T05:24:49.333Z,16.33
2023-02-12T05:26:23.299Z,17.00
2023-02-12T05:27:57.692Z,17.42
2023-02-12T05:29:30.701Z,16.58
2023-02-12T05:31:05.149Z,16.50
2023-02-12T05:32:38.132Z,16.48
2023-02-12T05:34:12.293Z,16.80
2023-02-12T05:35:45.165Z,16.15
2023-02-12T05:37:18.076Z,16.23
2023-02-12T05:38:52.220Z,15.73
2023-02-12T05:40:25.158Z,15.15
2023-02-12T05:41:58.098Z,16.05
2023-02-12T05:43:32.644Z,16.08
2023-02-12T05:45:06.409Z,17.15
2023-02-12T05:46:39.676Z,16.23
2023-02-12T05:49:44.429Z,15.00
2023-02-12T05:51:18.137Z,15.18
2023-02-12T05:52:51.217Z,15.50
2023-02-12T05:54:24.122Z,16.30
2023-02-12T05:56:05.279Z,17.70
2023-02-12T05:57:38.184Z,17.23
2023-02-12T05:59:16.557Z,16.38
2023-02-12T06:00:49.548Z,17.45
2023-02-12T06:02:22.868Z,17.40
2023-02-12T06:05:27.735Z,15.65
2023-02-12T06:07:01.632Z,15.82
2023-02-12T06:08:34.078Z,16.55
2023-02-12T06:10:08.276Z,16.38
2023-02-12T06:11:42.210Z,15.82
2023-02-12T06:13:15.152Z,19.63
2023-02-12T06:14:49.440Z,17.27
2023-02-12T06:16:24.595Z,17.48
2023-02-12T06:17:57.624Z,17.52
2023-02-12T06:19:30.501Z,15.75
2023-02-12T06:21:04.643Z,16.17
2023-02-12T06:22:38.420Z,16.15
2023-02-12T06:24:12.766Z,16.45
2023-02-12T06:25:44.657Z,15.20
2023-02-12T06:27:17.610Z,16.00
2023-02-12T06:28:51.198Z,16.02
2023-02-12T06:30:25.514Z,15.70
2023-02-12T06:31:58.627Z,16.00
2023-02-12T06:33:32.109Z,16.02
2023-02-12T06:36:38.819Z,15.50
2023-02-12T06:38:11.805Z,16.13
2023-02-12T06:39:44.801Z,16.00
2023-02-12T06:41:18.263Z,16.40
2023-02-12T06:44:24.023Z,16.05
2023-02-12T06:46:02.114Z,14.75
2023-02-12T06:47:35.076Z,16.05
2023-02-12T06:49:08.283Z,15.95
2023-02-12T06:50:41.242Z,15.30
2023-02-12T06:52:14.213Z,15.23
2023-02-12T06:53:47.168Z,16.27
2023-02-12T06:55:20.170Z,17.35
2023-02-12T06:56:53.122Z,15.68
2023-02-12T06:58:26.168Z,15.63
2023-02-12T06:59:59.102Z,14.90
2023-02-12T07:01:33.414Z,16.48
2023-02-12T07:03:06.453Z,15.73
2023-02-12T07:04:39.385Z,16.05
2023-02-12T07:06:12.446Z,15.65
2023-02-12T07:07:45.453Z,16.77
2023-02-12T07:09:18.439Z,17.08
2023-02-12T07:10:51.389Z,16.67
2023-02-12T07:12:24.363Z,16.63
2023-02-12T07:13:57.318Z,16.65
2023-02-12T07:15:30.197Z,16.85
2023-02-12T07:17:05.546Z,16.35
2023-02-12T07:18:39.397Z,15.88
2023-02-12T07:20:13.116Z,16.63
2023-02-12T07:21:46.096Z,16.83
2023-02-12T07:23:19.060Z,16.15
2023-02-12T07:24:52.014Z,15.82
2023-02-12T07:26:25.197Z,15.57
2023-02-12T07:27:58.186Z,15.45
2023-02-12T07:29:31.063Z,18.77
2023-02-12T07:31:07.645Z,16.80
2023-02-12T07:32:42.237Z,17.33
2023-02-12T07:34:15.279Z,16.90
2023-02-12T07:35:48.510Z,16.98
2023-02-12T07:37:22.726Z,16.55
2023-02-12T07:38:56.207Z,16.10
2023-02-12T07:42:01.941Z,15.82
2023-02-12T07:43:34.019Z,17.55
2023-02-12T07:45:07.646Z,17.55
2023-02-12T07:46:44.532Z,15.60
2023-02-12T07:48:20.628Z,16.08
2023-02-12T07:49:53.675Z,15.55
2023-02-12T07:51:27.954Z,16.45
2023-02-12T07:53:00.983Z,16.55
2023-02-12T07:54:34.158Z,16.30
2023-02-12T07:56:11.193Z,17.00
2023-02-12T07:57:44.252Z,16.05
2023-02-12T07:59:18.797Z,16.95
2023-02-12T08:00:52.703Z,17.45
2023-02-12T08:02:25.991Z,16.67
2023-02-12T08:05:33.862Z,16.80
2023-02-12T08:07:06.859Z,15.88
2023-02-12T08:08:39.996Z,17.13
2023-02-12T08:10:13.225Z,16.92
2023-02-12T08:11:46.845Z,17.60
2023-02-12T08:13:19.723Z,17.40
2023-02-12T08:15:09.248Z,17.08
2023-02-12T08:16:43.183Z,18.20
2023-02-12T08:18:15.111Z,17.60
2023-02-12T08:19:49.345Z,17.05
2023-02-12T08:21:23.919Z,17.70
2023-02-12T08:22:56.805Z,16.88
2023-02-12T08:24:30.060Z,16.70
2023-02-12T08:26:07.837Z,17.00
2023-02-12T08:27:42.596Z,16.35
2023-02-12T08:29:17.600Z,16.30
2023-02-12T08:30:49.563Z,16.92
2023-02-12T08:32:22.632Z,15.25
2023-02-12T08:33:56.420Z,16.48
2023-02-12T08:35:30.757Z,16.63
2023-02-12T08:37:06.240Z,15.93
2023-02-12T08:38:39.956Z,16.67
2023-02-12T08:40:14.342Z,16.00
2023-02-12T08:41:48.253Z,16.10
2023-02-12T08:43:21.172Z,16.23
2023-02-12T08:44:54.066Z,15.52
2023-02-12T08:46:29.505Z,16.75
2023-02-12T08:48:02.451Z,16.40
2023-02-12T08:49:35.614Z,16.23
2023-02-12T08:51:11.759Z,16.67
2023-02-12T08:52:44.647Z,17.42
2023-02-12T08:54:19.286Z,16.60
2023-02-12T08:55:52.266Z,15.57
2023-02-12T08:57:25.198Z,16.50
2023-02-12T08:58:58.506Z,16.98
2023-02-12T09:02:08.637Z,15.15
2023-02-12T09:03:41.591Z,16.48
2023-02-12T09:05:14.834Z,16.88
2023-02-12T09:06:49.891Z,16.25
2023-02-12T09:08:22.965Z,16.38
2023-02-12T09:09:55.885Z,16.58
2023-02-12T09:11:31.472Z,16.90
2023-02-12T09:13:04.356Z,16.60
2023-02-12T09:14:37.277Z,16.15
2023-02-12T09:16:11.017Z,16.55
2023-02-12T09:17:43.963Z,16.65
2023-02-12T09:19:16.946Z,17.05
2023-02-12T09:20:49.992Z,16.45
2023-02-12T09:22:24.266Z,16.92
2023-02-12T09:23:57.472Z,15.90
2023-02-12T09:25:30.401Z,15.55
2023-02-12T09:27:03.420Z,17.05
2023-02-12T09:28:37.285Z,16.42
2023-02-12T09:30:11.747Z,16.60
2023-02-12T09:31:44.954Z,17.05
2023-02-12T09:33:17.951Z,16.30
2023-02-12T09:34:50.881Z,16.33
2023-02-12T09:36:23.815Z,17.00
2023-02-12T09:37:58.143Z,17.33
2023-02-12T09:39:32.248Z,15.73
2023-02-12T09:41:27.957Z,15.57
2023-02-12T09:43:10.100Z,16.33
2023-02-12T09:44:49.117Z,15.52
2023-02-12T09:46:31.129Z,15.73
2023-02-12T09:48:18.466Z,16.92
2023-02-12T09:50:16.132Z,15.45
2023-02-12T09:51:54.016Z,15.68
2023-02-12T09:53:31.665Z,15.40
2023-02-12T09:55:05.007Z,16.17
2023-02-12T09:58:16.180Z,14.65
2023-02-12T09:59:53.875Z,14.25
2023-02-12T10:01:28.859Z,15.30
2023-02-12T10:03:05.794Z,13.93
2023-02-12T10:04:46.109Z,14.40
2023-02-12T10:06:30.913Z,14.50
2023-02-12T10:08:28.341Z,14.32
2023-02-12T10:10:24.460Z,13.75
2023-02-12T10:12:07.488Z,13.07
2023-02-12T10:13:48.968Z,14.20
2023-02-12T10:15:33.000Z,13.13
2023-02-12T10:17:13.487Z,14.38
2023-02-12T10:19:07.040Z,13.50
2023-02-12T10:20:59.544Z,15.05
2023-02-12T10:22:56.063Z,14.27
2023-02-12T10:24:55.608Z,15.00
2023-02-12T10:26:33.174Z,15.50
2023-02-12T10:28:12.436Z,15.00
2023-02-12T10:29:47.178Z,16.10
2023-02-12T10:31:29.354Z,15.73
2023-02-12T10:33:07.551Z,16.67
2023-02-12T10:34:43.555Z,14.57
2023-02-12T10:36:24.845Z,13.35
2023-02-12T10:38:02.045Z,14.15
2023-02-12T10:39:38.702Z,14.40
2023-02-12T10:41:14.360Z,14.02
2023-02-12T10:42:51.751Z,13.95
2023-02-12T10:44:24.941Z,14.77
2023-02-12T10:45:58.921Z,14.88
2023-02-12T10:47:31.971Z,14.80
2023-02-12T10:49:06.604Z,14.25
2023-02-12T10:50:48.602Z,14.30
2023-02-12T10:52:37.353Z,12.63
2023-02-12T10:54:33.197Z,13.57
2023-02-12T10:56:17.341Z,12.85
2023-02-12T10:57:51.893Z,12.63
2023-02-12T10:59:25.498Z,11.43
2023-02-12T11:01:00.634Z,12.35
2023-02-12T11:02:35.096Z,11.35
2023-02-12T11:04:22.699Z,12.55
2023-02-12T11:05:55.997Z,12.02
2023-02-12T11:07:29.687Z,11.90
2023-02-12T11:09:02.753Z,11.68
2023-02-12T11:10:41.761Z,12.02
2023-02-12T11:12:27.318Z,11.45
2023-02-12T11:14:05.440Z,12.38
2023-02-12T11:15:47.079Z,12.35
2023-02-12T11:17:26.551Z,10.98
2023-02-12T11:19:02.141Z,11.25
2023-02-12T11:20:39.587Z,11.50
2023-02-12T11:22:18.812Z,12.05
2023-02-12T11:23:51.947Z,11.32
2023-02-12T11:25:26.640Z,12.70
2023-02-12T11:27:14.328Z,11.50
2023-02-12T11:28:55.691Z,12.00
2023-02-12T11:30:30.374Z,10.43
2023-02-12T11:32:05.559Z,11.82
2023-02-12T11:33:39.173Z,11.18
2023-02-12T11:35:18.272Z,10.35
2023-02-12T11:36:53.361Z,10.35
2023-02-12T11:38:30.010Z,10.65
2023-02-12T11:40:03.393Z,11.60
2023-02-12T11:43:20.106Z,11.77
2023-02-12T11:44:56.060Z,12.45
2023-02-12T11:46:30.685Z,12.60
2023-02-12T11:48:11.811Z,12.32
2023-02-12T11:49:51.955Z,12.15
2023-02-12T11:51:29.334Z,12.20
2023-02-12T11:53:07.019Z,12.23
2023-02-12T11:54:43.001Z,12.25
2023-02-12T11:56:16.446Z,13.07
2023-02-12T11:57:51.779Z,13.80
2023-02-12T11:59:44.559Z,14.45
2023-02-12T12:01:21.808Z,14.15
2023-02-12T12:03:01.703Z,15.13
2023-02-12T12:04:36.669Z,14.75
2023-02-12T12:06:20.927Z,14.43
2023-02-12T12:07:59.227Z,13.68
2023-02-12T12:09:38.208Z,15.18
2023-02-12T12:11:15.851Z,14.90
2023-02-12T12:12:54.014Z,16.00
2023-02-12T12:14:32.448Z,15.55
2023-02-12T12:16:28.896Z,14.75
2023-02-12T12:18:29.900Z,14.02
2023-02-12T12:20:10.155Z,14.13
2023-02-12T12:21:49.761Z,13.32
2023-02-12T12:23:32.104Z,12.82
2023-02-12T12:25:13.961Z,12.95
2023-02-12T12:27:00.198Z,12.10
2023-02-12T12:28:38.292Z,12.77
2023-02-12T12:30:20.643Z,11.68
2023-02-12T12:31:59.115Z,14.73
2023-02-12T12:33:40.528Z,13.77
2023-02-12T12:35:17.227Z,14.45
2023-02-12T12:37:32.210Z,14.60
2023-02-12T12:39:17.373Z,14.20
2023-02-12T12:40:58.624Z,14.50
2023-02-12T12:43:03.485Z,15.05
2023-02-12T12:46:30.450Z,14.23
2023-02-12T12:48:17.093Z,14.80
2023-02-12T12:49:58.965Z,16.48
2023-02-12T12:51:53.151Z,15.55
2023-02-12T12:55:37.000Z,14.40
2023-02-12T12:57:16.894Z,14.10
2023-02-12T12:59:04.620Z,15.82
2023-02-12T13:00:50.087Z,14.07
2023-02-12T13:02:52.931Z,14.32
2023-02-12T13:04:47.873Z,13.60
2023-02-12T13:06:33.825Z,14.18
2023-02-12T13:08:19.801Z,13.75
2023-02-12T13:10:04.062Z,14.77
2023-02-12T13:11:44.316Z,14.70
2023-02-12T13:13:26.837Z,14.48
2023-02-12T13:15:06.679Z,13.60
2023-02-12T13:16:46.090Z,13.98
2023-02-12T13:18:29.479Z,14.15
2023-02-12T13:20:11.927Z,12.10
2023-02-12T13:21:56.336Z,12.05
2023-02-12T13:23:39.974Z,13.45
2023-02-12T13:25:24.846Z,13.77
2023-02-12T13:27:00.682Z,13.82
2023-02-12T13:28:38.664Z,13.05
2023-02-12T13:30:21.499Z,12.82
2023-02-12T13:31:58.054Z,12.35
2023-02-12T13:33:40.809Z,12.57
2023-02-12T13:35:19.634Z,11.88
2023-02-12T13:36:54.130Z,11.38
2023-02-12T13:38:29.679Z,13.10
2023-02-12T13:40:05.407Z,12.50
2023-02-12T13:41:39.489Z,12.30
2023-02-12T13:43:24.308Z,13.00
2023-02-12T13:45:04.381Z,13.15
2023-02-12T13:46:50.055Z,12.38
2023-02-12T13:48:45.344Z,12.88
2023-02-12T13:50:33.431Z,13.52
2023-02-12T13:52:13.879Z,13.30
2023-02-12T13:53:59.115Z,12.48
2023-02-12T13:55:36.226Z,12.88
2023-02-12T13:57:14.292Z,12.48
2023-02-12T13:58:52.194Z,13.00
2023-02-12T14:00:59.435Z,12.57
2023-02-12T14:02:52.081Z,12.60
2023-02-12T14:04:36.039Z,13.20
2023-02-12T14:06:15.398Z,13.20
2023-02-12T14:07:52.285Z,12.25
2023-02-12T14:09:32.263Z,13.05
2023-02-12T14:11:08.297Z,13.15
2023-02-12T14:12:42.986Z,12.70
2023-02-12T14:14:27.359Z,13.73
2023-02-12T14:16:18.877Z,12.10
2023-02-12T14:17:56.359Z,12.57
2023-02-12T14:19:57.230Z,11.88
2023-02-12T14:21:38.879Z,12.57
2023-02-12T14:23:32.512Z,13.23
2023-02-12T14:25:32.027Z,13.70
2023-02-12T14:27:06.724Z,13.30
2023-02-12T14:28:52.152Z,15.23
2023-02-12T14:30:34.573Z,13.45
2023-02-12T14:33:02.555Z,13.15
2023-02-12T14:34:40.145Z,13.68
2023-02-12T14:36:18.815Z,13.32
2023-02-12T14:37:51.740Z,13.00
2023-02-12T14:39:30.949Z,14.07
2023-02-12T14:41:34.090Z,13.10
2023-02-12T14:43:31.615Z,13.40
2023-02-12T14:45:04.777Z,13.10
2023-02-12T14:46:50.092Z,13.45
2023-02-12T14:48:51.633Z,13.75
2023-02-12T14:50:29.827Z,13.15
2023-02-12T14:52:05.888Z,12.80
2023-02-12T14:53:40.922Z,12.70
2023-02-12T14:55:28.086Z,13.20
2023-02-12T14:57:03.884Z,13.30
2023-02-12T14:58:37.286Z,13.10
2023-02-12T15:01:55.808Z,12.57
2023-02-12T15:03:35.009Z,12.90
2023-02-12T15:05:16.420Z,13.68
2023-02-12T15:06:56.074Z,13.10
2023-02-12T15:08:35.675Z,13.18
2023-02-12T15:10:16.184Z,13.77
2023-02-12T15:11:55.345Z,13.18
2023-02-12T15:13:34.117Z,13.80
2023-02-12T15:15:14.926Z,15.23
2023-02-12T15:16:55.440Z,14.10
2023-02-12T15:18:36.669Z,13.93
2023-02-12T15:20:18.077Z,13.85
2023-02-12T15:21:54.414Z,15.07
2023-02-12T15:23:36.905Z,14.15
2023-02-12T15:25:16.580Z,13.43
2023-02-12T15:26:52.771Z,13.10
2023-02-12T15:28:33.532Z,13.20
2023-02-12T15:30:25.573Z,13.40
2023-02-12T15:32:00.560Z,13.43
2023-02-12T15:33:35.438Z,13.32
2023-02-12T15:35:23.083Z,13.23
2023-02-12T15:36:59.444Z,13.43
2023-02-12T15:38:35.197Z,13.63
2023-02-12T15:40:14.459Z,15.23
2023-02-12T15:41:47.836Z,14.18
2023-02-12T15:45:03.811Z,12.82
2023-02-12T15:46:36.879Z,13.75
2023-02-12T15:48:13.858Z,13.25
2023-02-12T15:49:46.768Z,13.48
2023-02-12T15:51:27.459Z,13.60
2023-02-12T15:53:00.719Z,12.85
2023-02-12T15:54:33.824Z,13.52
2023-02-12T15:56:11.468Z,13.27
2023-02-12T15:57:45.841Z,12.43
2023-02-12T15:59:23.782Z,13.73
2023-02-12T16:01:02.177Z,14.07
2023-02-12T16:02:35.303Z,13.48
2023-02-12T16:04:09.372Z,13.25
2023-02-12T16:05:42.545Z,13.10
2023-02-12T16:07:16.731Z,14.02
2023-02-12T16:08:51.718Z,13.75
2023-02-12T16:10:27.170Z,14.45
2023-02-12T16:12:03.393Z,14.77
2023-02-12T16:13:37.710Z,13.23
2023-02-12T16:15:30.609Z,13.93
2023-02-12T16:17:03.654Z,13.07
2023-02-12T16:18:36.567Z,12.90
2023-02-12T16:20:24.702Z,13.10
2023-02-12T16:22:07.221Z,13.50
2023-02-12T16:23:40.390Z,12.63
2023-02-12T16:25:18.114Z,13.73
2023-02-12T16:26:51.467Z,12.85
2023-02-12T16:30:01.140Z,12.82
2023-02-12T16:31:35.527Z,16.90
2023-02-12T16:33:33.583Z,13.82
2023-02-12T16:35:24.517Z,13.45
2023-02-12T16:36:57.519Z,13.32
2023-02-12T16:38:42.841Z,14.02
2023-02-12T16:40:28.332Z,14.18
2023-02-12T16:42:01.324Z,12.50
2023-02-12T16:43:34.354Z,13.77
2023-02-12T16:45:35.310Z,14.07
2023-02-12T16:47:21.757Z,12.88
2023-02-12T16:48:56.989Z,13.57
2023-02-12T16:50:30.938Z,14.32
2023-02-12T16:52:22.928Z,14.43
2023-02-12T16:53:57.546Z,13.60
2023-02-12T16:55:30.823Z,13.73
2023-02-12T16:57:04.143Z,14.38
2023-02-12T17:00:13.065Z,13.32
2023-02-12T17:01:58.765Z,13.80
2023-02-12T17:03:33.272Z,13.43
2023-02-12T17:05:07.376Z,13.45
2023-02-12T17:06:40.288Z,13.63
2023-02-12T17:08:15.738Z,13.95
2023-02-12T17:09:48.950Z,15.30
2023-02-12T17:11:23.289Z,13.77
2023-02-12T17:12:56.311Z,14.23
2023-02-12T17:14:29.214Z,13.60
2023-02-12T17:16:02.523Z,14.07
2023-02-12T17:17:35.557Z,13.50
2023-02-12T17:19:09.872Z,14.25
2023-02-12T17:20:43.235Z,15.20
2023-02-12T17:23:53.833Z,13.65
2023-02-12T17:25:26.819Z,14.45
2023-02-12T17:26:59.796Z,14.32
2023-02-12T17:28:32.755Z,14.23
2023-02-12T17:30:07.119Z,15.48
2023-02-12T17:31:40.217Z,15.27
2023-02-12T17:33:13.728Z,15.23
2023-02-12T17:34:48.979Z,15.55
2023-02-12T17:36:22.265Z,15.15
2023-02-12T17:37:55.166Z,15.82
2023-02-12T17:39:28.056Z,14.75
2023-02-12T17:41:00.996Z,15.20
2023-02-12T17:42:34.286Z,14.82
2023-02-12T17:44:07.675Z,16.27
2023-02-12T17:45:44.723Z,16.00
2023-02-12T17:47:17.739Z,15.40
2023-02-12T17:48:50.726Z,17.92
2023-02-12T17:50:25.360Z,17.02
2023-02-12T17:51:58.250Z,17.00
2023-02-12T17:53:31.147Z,16.35
2023-02-12T17:55:04.352Z,16.02
2023-02-12T17:56:37.301Z,16.50
2023-02-12T17:58:10.641Z,15.90
2023-02-12T17:59:43.656Z,16.83
2023-02-12T18:01:18.715Z,17.02
2023-02-12T18:02:51.916Z,17.52
2023-02-12T18:04:24.872Z,16.13
2023-02-12T18:05:59.229Z,17.30
2023-02-12T18:07:34.200Z,17.65
2023-02-12T18:09:07.088Z,17.25
2023-02-12T18:10:43.646Z,17.02
2023-02-12T18:12:16.674Z,16.52
2023-02-12T18:13:53.422Z,17.70
2023-02-12T18:15:26.323Z,17.33
2023-02-12T18:16:59.535Z,18.67
2023-02-12T18:18:32.439Z,16.52
2023-02-12T18:20:06.730Z,17.88
2023-02-12T18:21:41.009Z,16.30
2023-02-12T18:23:13.965Z,18.20
2023-02-12T18:24:47.386Z,17.42
2023-02-12T18:27:53.326Z,16.08
2023-02-12T18:29:26.199Z,15.50
2023-02-12T18:30:59.973Z,16.75
2023-02-12T18:32:33.165Z,16.50
2023-02-12T18:34:07.258Z,16.42
2023-02-12T18:35:41.700Z,16.30
2023-02-12T18:37:16.027Z,16.45
2023-02-12T18:38:51.225Z,16.10
2023-02-12T18:40:25.244Z,16.60
2023-02-12T18:41:58.221Z,15.15
2023-02-12T18:43:33.890Z,15.10
2023-02-12T18:45:07.455Z,15.52
2023-02-12T18:46:40.397Z,15.82
2023-02-12T18:48:13.297Z,16.08
2023-02-12T18:49:46.192Z,15.93
2023-02-12T18:51:22.208Z,16.83
2023-02-12T18:52:56.429Z,16.35
2023-02-12T18:54:29.320Z,16.20
2023-02-12T18:56:05.789Z,15.55
2023-02-12T18:57:38.753Z,16.35
2023-02-12T18:59:13.951Z,16.38
2023-02-12T19:00:46.905Z,15.52
2023-02-12T19:02:19.947Z,15.82
2023-02-12T19:03:55.062Z,16.73
2023-02-12T19:05:28.148Z,16.40
2023-02-12T19:07:01.199Z,16.67
2023-02-12T19:08:35.527Z,15.35
2023-02-12T19:10:09.657Z,15.85
2023-02-12T19:11:42.581Z,15.75
2023-02-12T19:13:15.501Z,15.60
2023-02-12T19:14:48.524Z,16.45
2023-02-12T19:16:23.469Z,16.95
2023-02-12T19:17:56.441Z,16.00
2023-02-12T19:19:29.530Z,15.73
2023-02-12T19:21:06.820Z,17.02
2023-02-12T19:22:39.743Z,16.60
2023-02-12T19:24:16.868Z,16.30
2023-02-12T19:25:49.799Z,15.88
2023-02-12T19:27:22.728Z,17.83
2023-02-12T19:28:56.217Z,18.15
2023-02-12T19:30:29.224Z,18.00
2023-02-12T19:32:02.276Z,19.73
2023-02-12T19:35:15.600Z,18.38
2023-02-12T19:36:49.853Z,18.35
2023-02-12T19:38:22.839Z,19.95
2023-02-12T19:39:57.158Z,19.88
2023-02-12T19:41:32.793Z,19.20
2023-02-12T19:43:05.750Z,18.88
2023-02-12T19:44:40.706Z,20.15
2023-02-12T19:46:15.587Z,19.25
2023-02-12T19:47:50.722Z,19.70
2023-02-12T19:49:25.927Z,19.33
2023-02-12T19:50:59.547Z,18.42
2023-02-12T19:52:32.473Z,19.90
2023-02-12T19:54:07.981Z,21.15
2023-02-12T19:55:50.113Z,17.98
2023-02-12T19:57:23.092Z,18.25
2023-02-12T19:58:57.332Z,17.38
2023-02-12T20:00:30.381Z,16.77
2023-02-12T20:02:03.671Z,18.13
2023-02-12T20:03:36.649Z,18.73
2023-02-12T20:05:09.954Z,18.17
2023-02-12T20:06:45.919Z,18.73
2023-02-12T20:08:20.108Z,17.42
2023-02-12T20:09:53.010Z,20.58
2023-02-12T20:11:29.355Z,19.15
2023-02-12T20:13:02.329Z,18.65
2023-02-12T20:14:35.630Z,23.25
2023-02-12T20:16:10.661Z,19.08
2023-02-12T20:17:43.727Z,22.92
2023-02-12T20:19:18.677Z,22.23
2023-02-12T20:20:51.897Z,23.70
2023-02-12T20:22:24.888Z,22.42
2023-02-12T20:23:58.440Z,20.02
2023-02-12T20:25:31.501Z,19.63
2023-02-12T20:27:05.772Z,20.95
2023-02-12T20:28:39.461Z,18.25
2023-02-12T20:30:13.392Z,17.92
2023-02-12T20:31:46.912Z,21.15
2023-02-12T20:33:19.909Z,19.30
2023-02-12T20:34:52.964Z,19.83
2023-02-12T20:36:26.912Z,19.45
2023-02-12T20:37:59.847Z,18.77
2023-02-12T20:39:32.973Z,17.92
2023-02-12T20:41:07.472Z,16.67
2023-02-12T20:42:41.768Z,17.85
2023-02-12T20:44:16.811Z,16.02
2023-02-12T20:45:49.807Z,17.05
2023-02-12T20:47:28.447Z,16.25
2023-02-12T20:49:01.580Z,16.25
2023-02-12T20:50:34.637Z,15.80
2023-02-12T20:52:07.660Z,16.65
2023-02-12T20:53:41.277Z,15.05
2023-02-12T20:55:14.365Z,15.43
2023-02-12T20:56:49.134Z,15.52
2023-02-12T20:58:23.487Z,16.35
2023-02-12T20:59:56.371Z,15.82
2023-02-12T21:01:32.840Z,17.52
2023-02-12T21:03:05.990Z,19.52
2023-02-12T21:04:39.295Z,18.58
2023-02-12T21:06:12.771Z,18.55
2023-02-12T21:07:46.493Z,17.98
2023-02-12T21:09:22.597Z,16.38
2023-02-12T21:11:02.432Z,15.77
2023-02-12T21:12:35.436Z,16.00
2023-02-12T21:14:26.779Z,13.68
2023-02-12T21:16:08.162Z,12.73
2023-02-12T21:17:41.239Z,10.90
2023-02-12T21:19:14.905Z,10.73
2023-02-12T21:20:47.813Z,4.05
2023-02-12T21:22:21.358Z,3.78
2023-02-12T21:23:56.890Z,2.90
2023-02-12T21:25:29.868Z,2.72